Time;durP1;ratioP1;P1;durP2;ratioP2;P2;SDS_P1;SDS_P2;PMS_P1;PMS_P2;Temp;Humidity;BMP_temperature;BMP_pressure;BME280_temperature;BME280_humidity;BME280_pressure;Samples;Min_cycle;Max_cycle;Signal;HPM_P1;HPM_P2
2022/01/01 00:02:13;;;;;;;1999.90;852.03;;;14.70;99.90;;;;;;5125060;27;20044;-82
2022/01/01 00:04:42;;;;;;;1739.10;624.38;;;12.90;99.90;;;;;;5113187;27;20295;-81
2022/01/01 00:07:11;;;;;;;1999.90;999.90;;;13.60;99.90;;;;;;5133307;27;20083;-80
2022/01/01 00:09:41;;;;;;;1999.90;999.90;;;14.80;99.90;;;;;;5150695;27;20047;-81
2022/01/01 00:12:07;;;;;;;1999.90;758.90;;;12.90;99.90;;;;;;5134213;27;20085;-80
2022/01/01 00:14:34;;;;;;;1999.90;999.90;;;13.00;99.90;;;;;;5131453;27;20168;-81
2022/01/01 00:16:59;;;;;;;1999.90;999.90;;;13.50;99.90;;;;;;5124042;27;20411;-82
2022/01/01 00:19:26;;;;;;;1999.90;818.45;;;12.80;99.90;;;;;;5123778;27;20052;-87
2022/01/01 00:21:51;;;;;;;1999.90;878.90;;;12.90;99.90;;;;;;5123870;27;20457;-82
2022/01/01 00:24:17;;;;;;;1999.90;999.90;;;13.60;99.90;;;;;;5122555;27;20049;-88
2022/01/01 00:26:43;;;;;;;1999.90;921.85;;;13.60;99.90;;;;;;5121597;27;20122;-84
2022/01/01 00:29:08;;;;;;;1999.90;854.03;;;13.60;99.90;;;;;;5122745;27;20131;-80
2022/01/01 00:31:34;;;;;;;1999.90;980.15;;;12.70;99.90;;;;;;5123985;27;20531;-88
2022/01/01 00:34:00;;;;;;;1999.90;999.90;;;13.20;99.90;;;;;;5122989;27;20474;-81
2022/01/01 00:36:26;;;;;;;1999.90;875.17;;;13.80;99.90;;;;;;5122317;27;20047;-80
2022/01/01 00:38:52;;;;;;;1999.90;614.90;;;12.90;99.90;;;;;;5105406;27;20085;-86
2022/01/01 00:41:18;;;;;;;1999.90;846.78;;;13.40;99.90;;;;;;5102800;27;20107;-80
2022/01/01 00:43:44;;;;;;;1999.90;996.92;;;12.70;99.90;;;;;;5123987;27;20051;-81
2022/01/01 00:46:10;;;;;;;1999.90;999.90;;;13.20;99.90;;;;;;5143754;27;20043;-86
2022/01/01 00:48:36;;;;;;;1999.90;999.90;;;13.30;99.90;;;;;;5129215;27;20050;-81
2022/01/01 00:51:02;;;;;;;1999.90;871.45;;;12.60;99.90;;;;;;5127667;27;20038;-87
2022/01/01 00:53:27;;;;;;;1999.90;667.78;;;12.70;99.90;;;;;;5129142;27;20051;-84
2022/01/01 00:55:53;;;;;;;1999.90;582.65;;;12.60;99.90;;;;;;5132198;27;20093;-82
2022/01/01 00:58:19;;;;;;;1999.90;999.90;;;12.50;99.90;;;;;;5130147;27;20035;-81
2022/01/01 01:00:45;;;;;;;1999.90;915.92;;;12.60;99.90;;;;;;5126834;27;20043;-82
2022/01/01 01:03:12;;;;;;;1999.90;758.97;;;13.30;99.90;;;;;;5121427;27;20039;-83
2022/01/01 01:05:39;;;;;;;1999.90;999.90;;;13.20;99.90;;;;;;5123194;27;20574;-81
2022/01/01 01:08:09;;;;;;;1999.90;999.90;;;12.90;99.90;;;;;;5120181;27;20180;-82
2022/01/01 01:10:37;;;;;;;1999.90;644.97;;;12.80;99.90;;;;;;5122507;27;20064;-90
2022/01/01 01:13:03;;;;;;;1999.90;758.67;;;13.40;99.90;;;;;;5121263;27;20043;-89
2022/01/01 01:15:30;;;;;;;1999.90;999.90;;;12.80;99.90;;;;;;5121250;27;20482;-81
2022/01/01 01:18:00;;;;;;;1999.90;998.30;;;12.70;99.90;;;;;;5118744;27;20058;-81
2022/01/01 01:20:27;;;;;;;1999.90;999.90;;;12.80;99.90;;;;;;5122952;27;20047;-83
2022/01/01 01:22:54;;;;;;;1999.90;999.90;;;13.90;99.90;;;;;;5121297;27;20116;-81
2022/01/01 01:25:21;;;;;;;1999.90;999.90;;;12.70;99.90;;;;;;5103379;27;20732;-81
2022/01/01 01:27:49;;;;;;;1999.90;925.20;;;13.20;99.90;;;;;;5122609;27;20047;-82
2022/01/01 01:30:16;;;;;;;1999.90;999.90;;;12.90;99.90;;;;;;5124596;27;20297;-81
2022/01/01 01:32:42;;;;;;;1999.90;999.90;;;12.70;99.90;;;;;;5126254;27;20444;-83
2022/01/01 01:35:09;;;;;;;1999.90;747.50;;;12.70;99.90;;;;;;5111287;27;20127;-82
2022/01/01 01:37:35;;;;;;;1999.90;999.90;;;12.90;99.90;;;;;;5120950;27;20258;-89
2022/01/01 01:40:02;;;;;;;1999.90;721.05;;;12.80;99.90;;;;;;5123545;27;20043;-88
2022/01/01 01:42:29;;;;;;;1999.90;975.37;;;12.90;99.90;;;;;;5122233;27;20419;-84
2022/01/01 01:44:56;;;;;;;1999.90;999.90;;;13.00;99.90;;;;;;5120390;27;20046;-86
2022/01/01 01:47:32;;;;;;;1999.90;865.05;;;13.10;99.90;;;;;;5126612;27;20042;-80
2022/01/01 01:50:00;;;;;;;1999.90;999.90;;;13.10;99.90;;;;;;5095078;27;20448;-81
2022/01/01 01:52:33;;;;;;;1999.90;993.47;;;12.80;99.90;;;;;;5122591;27;20455;-81
2022/01/01 01:55:05;;;;;;;1999.90;999.90;;;12.80;99.90;;;;;;5121293;27;20463;-81
2022/01/01 01:57:33;;;;;;;1999.90;999.90;;;12.70;99.90;;;;;;5125938;27;20065;-81
2022/01/01 01:59:59;;;;;;;1580.63;612.67;;;13.10;99.90;;;;;;5107514;27;20055;-82
2022/01/01 02:02:24;;;;;;;1999.90;999.90;;;12.70;99.90;;;;;;5111986;27;20377;-82
2022/01/01 02:04:50;;;;;;;1999.90;999.90;;;13.00;99.90;;;;;;5131424;27;21888;-81
2022/01/01 02:07:16;;;;;;;1999.90;870.63;;;12.90;99.90;;;;;;5128203;27;20043;-81
2022/01/01 02:09:42;;;;;;;1999.90;999.90;;;12.40;99.90;;;;;;5125364;27;20043;-81
2022/01/01 02:12:08;;;;;;;1999.90;763.78;;;12.80;99.90;;;;;;5127187;27;20539;-87
2022/01/01 02:17:31;;;;;;;1999.90;999.90;;;12.40;99.90;;;;;;5134295;27;20047;-79
2022/01/01 02:20:02;;;;;;;1999.90;999.90;;;12.50;99.90;;;;;;5133924;27;20107;-79
2022/01/01 02:22:40;;;;;;;1999.90;721.65;;;12.50;99.90;;;;;;5129955;27;20066;-79
2022/01/01 02:25:06;;;;;;;1999.90;999.90;;;12.40;99.90;;;;;;5131256;27;20062;-80
2022/01/01 02:27:34;;;;;;;1990.00;832.97;;;12.80;99.90;;;;;;5132548;27;20067;-79
2022/01/01 02:30:00;;;;;;;;;;;12.30;99.90;;;;;;5126767;27;20047;-80
2022/01/01 02:32:25;;;;;;;1999.90;638.88;;;12.50;99.90;;;;;;5125182;27;20138;-79
2022/01/01 02:34:51;;;;;;;1999.90;910.47;;;12.30;99.90;;;;;;5123649;27;20110;-80
2022/01/01 02:37:17;;;;;;;1999.90;962.60;;;;;;;;;;5120751;27;20397;-80
2022/01/01 02:39:43;;;;;;;1999.90;581.00;;;12.70;99.90;;;;;;5127178;27;20043;-84
2022/01/01 02:42:11;;;;;;;1999.90;999.90;;;12.70;99.90;;;;;;5122556;27;20116;-84
2022/01/01 02:44:37;;;;;;;1999.90;999.90;;;12.80;99.90;;;;;;5106320;28;20108;-79
2022/01/01 02:47:03;;;;;;;1999.90;806.88;;;12.40;99.90;;;;;;5127739;27;20546;-80
2022/01/01 02:49:29;;;;;;;1999.90;999.90;;;12.80;99.90;;;;;;5104673;27;20095;-80
2022/01/01 02:51:54;;;;;;;1999.90;999.90;;;12.80;99.90;;;;;;5120715;27;20444;-80
2022/01/01 02:54:20;;;;;;;1999.90;999.90;;;13.70;99.90;;;;;;5102341;27;20479;-81
2022/01/01 02:56:46;;;;;;;1999.90;925.55;;;12.80;99.90;;;;;;5102136;28;20655;-79
2022/01/01 02:59:11;;;;;;;1999.90;999.90;;;12.60;99.90;;;;;;5120896;28;20062;-79
2022/01/01 03:01:37;;;;;;;1999.90;999.90;;;12.50;99.90;;;;;;5124376;28;20507;-82
2022/01/01 03:04:03;;;;;;;1999.90;999.90;;;12.80;99.90;;;;;;5122086;28;20076;-79
2022/01/01 03:06:29;;;;;;;1999.90;896.42;;;12.80;99.90;;;;;;5117940;27;20611;-79
2022/01/01 03:08:56;;;;;;;1999.90;999.90;;;12.80;99.90;;;;;;5120529;27;20123;-79
2022/01/01 03:11:23;;;;;;;1999.90;971.35;;;12.70;99.90;;;;;;5119727;27;20043;-78
2022/01/01 03:13:49;;;;;;;1999.90;999.90;;;12.40;99.90;;;;;;5120322;28;20043;-83
2022/01/01 03:16:15;;;;;;;1999.90;999.90;;;12.50;99.90;;;;;;5120157;27;20069;-78
2022/01/01 03:18:41;;;;;;;1999.90;999.90;;;12.60;99.90;;;;;;5101995;28;20039;-82
2022/01/01 03:21:07;;;;;;;1999.90;999.90;;;12.40;99.90;;;;;;5119305;28;20078;-78
2022/01/01 03:23:33;;;;;;;1999.90;999.90;;;12.90;99.90;;;;;;5127489;27;20079;-79
2022/01/01 03:25:59;;;;;;;1999.90;999.90;;;13.20;99.90;;;;;;5128676;28;20050;-80
2022/01/01 03:28:26;;;;;;;1999.90;965.60;;;12.60;99.90;;;;;;5125102;28;20039;-78
2022/01/01 03:30:51;;;;;;;1999.90;999.90;;;12.50;99.90;;;;;;5127815;28;20518;-78
2022/01/01 03:33:17;;;;;;;1999.90;999.90;;;12.50;99.90;;;;;;5136239;27;20039;-78
2022/01/01 03:35:43;;;;;;;1950.88;888.80;;;12.50;99.90;;;;;;5120903;28;20112;-84
2022/01/01 03:38:08;;;;;;;1999.90;999.90;;;12.50;99.90;;;;;;5119517;28;20035;-83
2022/01/01 03:40:34;;;;;;;1999.90;906.13;;;12.50;99.90;;;;;;5122035;27;20077;-80
2022/01/01 03:43:00;;;;;;;1999.90;878.05;;;13.60;99.90;;;;;;5126329;27;20077;-80
2022/01/01 03:45:26;;;;;;;1999.90;999.90;;;13.10;99.90;;;;;;5129625;27;20121;-79
2022/01/01 03:47:52;;;;;;;1999.90;999.90;;;13.90;99.90;;;;;;5131836;27;20043;-79
2022/01/01 03:50:18;;;;;;;1999.90;999.90;;;12.80;99.90;;;;;;5131659;27;20039;-79
2022/01/01 03:52:44;;;;;;;1999.90;999.90;;;13.00;99.90;;;;;;5121670;27;20039;-78
2022/01/01 03:55:12;;;;;;;1999.90;999.90;;;14.20;99.90;;;;;;5128183;27;20046;-81
2022/01/01 03:57:37;;;;;;;1999.90;999.90;;;13.00;99.90;;;;;;5132798;27;20050;-78
2022/01/01 04:00:11;;;;;;;1999.90;858.05;;;12.70;99.90;;;;;;5133045;27;20050;-78
2022/01/01 04:02:36;;;;;;;1999.90;999.90;;;12.90;99.90;;;;;;5131968;27;20047;-78
2022/01/01 04:05:03;;;;;;;1999.90;999.90;;;13.10;99.90;;;;;;5130986;27;20096;-78
2022/01/01 04:07:30;;;;;;;1999.90;999.90;;;12.80;99.90;;;;;;5128416;27;20140;-77
2022/01/01 04:09:56;;;;;;;1999.90;999.90;;;12.60;99.90;;;;;;5132588;27;20415;-78
2022/01/01 04:12:21;;;;;;;1999.90;984.92;;;12.70;99.90;;;;;;5132415;27;20074;-77
2022/01/01 04:14:47;;;;;;;1999.90;999.90;;;13.10;99.90;;;;;;5133772;27;20054;-77
2022/01/01 04:17:13;;;;;;;1999.90;769.33;;;13.10;99.90;;;;;;5127931;27;20053;-78
2022/01/01 04:19:41;;;;;;;1999.90;999.90;;;12.60;99.90;;;;;;5131699;27;20039;-77
2022/01/01 04:22:12;;;;;;;1999.90;994.05;;;13.10;99.90;;;;;;5130868;27;21092;-77
2022/01/01 04:24:40;;;;;;;1999.90;991.85;;;12.70;99.90;;;;;;5132785;27;20115;-78
2022/01/01 04:27:07;;;;;;;1999.90;999.90;;;14.30;99.90;;;;;;5125164;27;20122;-77
2022/01/01 04:29:33;;;;;;;1999.90;999.90;;;12.70;99.90;;;;;;5131244;27;20043;-77
2022/01/01 04:32:00;;;;;;;1999.90;999.90;;;12.90;99.90;;;;;;5131853;27;20043;-77
2022/01/01 04:34:26;;;;;;;1999.90;999.90;;;12.60;99.90;;;;;;5130691;27;20047;-77
2022/01/01 04:37:05;;;;;;;1999.90;999.90;;;13.10;99.90;;;;;;5128558;27;20104;-77
2022/01/01 04:39:30;;;;;;;1999.90;999.90;;;12.60;99.90;;;;;;5129222;27;20043;-77
2022/01/01 04:41:56;;;;;;;1999.90;999.90;;;12.80;99.90;;;;;;5109225;27;20047;-77
2022/01/01 04:44:22;;;;;;;1999.90;913.13;;;13.10;99.90;;;;;;5131994;27;20047;-81
2022/01/01 04:46:47;;;;;;;1999.90;811.88;;;12.70;99.90;;;;;;5133224;27;20039;-77
2022/01/01 04:49:13;;;;;;;1999.90;999.90;;;12.80;99.90;;;;;;5128186;27;20483;-77
2022/01/01 04:51:39;;;;;;;1999.90;981.40;;;12.70;99.90;;;;;;5130320;27;20308;-77
2022/01/01 04:54:11;;;;;;;1999.90;861.17;;;12.80;99.90;;;;;;5128526;27;20118;-77
2022/01/01 04:56:43;;;;;;;1999.90;797.58;;;12.60;99.90;;;;;;5132647;27;20410;-77
2022/01/01 04:59:08;;;;;;;1999.90;992.45;;;12.80;99.90;;;;;;5130540;27;20119;-77
2022/01/01 05:01:34;;;;;;;1999.90;929.22;;;13.00;99.90;;;;;;5130636;27;20546;-77
2022/01/01 05:04:00;;;;;;;1999.90;999.90;;;12.70;99.90;;;;;;5103452;28;20471;-77
2022/01/01 05:06:26;;;;;;;1999.90;950.08;;;13.90;99.90;;;;;;5120202;27;20039;-78
2022/01/01 05:08:52;;;;;;;1999.90;938.50;;;12.70;99.90;;;;;;5130452;27;20046;-81
2022/01/01 05:11:18;;;;;;;1999.90;779.80;;;13.80;99.90;;;;;;5125942;27;20048;-79
2022/01/01 05:13:43;;;;;;;1999.90;991.70;;;12.80;99.90;;;;;;5130569;27;20907;-76
2022/01/01 05:16:14;;;;;;;1999.90;999.67;;;13.20;99.90;;;;;;5127121;27;20125;-76
2022/01/01 05:18:40;;;;;;;1999.90;800.28;;;13.20;99.90;;;;;;5112487;27;20441;-78
2022/01/01 05:21:05;;;;;;;1999.90;999.90;;;13.00;99.90;;;;;;5110441;27;20051;-78
2022/01/01 05:23:32;;;;;;;1999.90;967.33;;;13.20;99.90;;;;;;5129747;27;20055;-78
2022/01/01 05:25:58;;;;;;;1999.90;954.47;;;13.30;99.90;;;;;;5131459;27;20075;-77
2022/01/01 05:28:24;;;;;;;1999.90;927.50;;;12.80;99.90;;;;;;5112073;27;20070;-87
2022/01/01 05:30:50;;;;;;;1999.90;931.33;;;13.20;99.90;;;;;;5124576;27;20142;-78
2022/01/01 05:33:15;;;;;;;1999.90;705.35;;;13.10;99.90;;;;;;5141628;27;20096;-77
2022/01/01 05:35:41;;;;;;;1999.90;999.90;;;13.30;99.90;;;;;;5097615;27;20046;-84
2022/01/01 05:38:07;;;;;;;1999.90;999.90;;;13.30;99.90;;;;;;5121271;27;20043;-81
2022/01/01 05:40:33;;;;;;;1999.90;999.90;;;12.90;99.90;;;;;;5121903;27;20107;-84
2022/01/01 05:42:58;;;;;;;1999.90;999.90;;;12.90;99.90;;;;;;5124204;27;20099;-79
2022/01/01 05:45:24;;;;;;;1999.90;999.90;;;12.90;99.90;;;;;;5121269;27;20047;-84
2022/01/01 05:47:50;;;;;;;1999.90;762.42;;;12.90;99.90;;;;;;5102714;27;20051;-81
2022/01/01 05:50:17;;;;;;;1999.90;987.17;;;13.30;99.90;;;;;;5123265;27;20625;-78
2022/01/01 05:52:43;;;;;;;1999.90;905.90;;;13.30;99.90;;;;;;5122115;27;20059;-78
2022/01/01 05:55:09;;;;;;;1999.90;838.50;;;13.10;99.90;;;;;;5122456;27;20043;-81
2022/01/01 05:57:35;;;;;;;1999.90;999.90;;;13.10;99.90;;;;;;5120947;27;20046;-77
2022/01/01 06:00:02;;;;;;;1999.90;999.90;;;12.90;99.90;;;;;;5122661;27;20095;-78
2022/01/01 06:02:28;;;;;;;1999.90;829.63;;;13.60;99.90;;;;;;5122133;27;20085;-84
2022/01/01 06:04:53;;;;;;;1999.90;923.20;;;12.90;99.90;;;;;;5122677;27;20324;-78
2022/01/01 06:07:19;;;;;;;1999.90;999.58;;;13.10;99.90;;;;;;5106975;27;20055;-78
2022/01/01 06:09:45;;;;;;;1999.90;999.90;;;13.30;99.90;;;;;;5121578;27;20126;-78
2022/01/01 06:12:11;;;;;;;1999.90;924.13;;;13.20;99.90;;;;;;5107837;27;20508;-78
2022/01/01 06:14:37;;;;;;;1999.90;999.90;;;13.20;99.90;;;;;;5119115;27;20056;-76
2022/01/01 06:17:03;;;;;;;1999.90;886.15;;;13.30;99.90;;;;;;5120401;27;20483;-79
2022/01/01 06:19:28;;;;;;;1999.90;999.90;;;13.40;99.90;;;;;;5120763;27;20032;-83
2022/01/01 06:21:54;;;;;;;1999.90;980.58;;;13.00;99.90;;;;;;5121503;27;20047;-81
2022/01/01 06:24:20;;;;;;;1999.90;838.65;;;13.40;99.90;;;;;;5122351;27;20080;-82
2022/01/01 06:26:45;;;;;;;1999.90;999.90;;;13.20;99.90;;;;;;5120833;27;20047;-78
2022/01/01 06:29:11;;;;;;;1999.90;914.50;;;13.10;99.90;;;;;;5122816;27;20040;-77
2022/01/01 06:31:37;;;;;;;1999.90;999.90;;;13.40;99.90;;;;;;5126253;27;20072;-76
2022/01/01 06:34:03;;;;;;;1999.90;999.90;;;13.40;99.90;;;;;;5125756;27;20039;-76
2022/01/01 06:36:29;;;;;;;1999.90;909.42;;;;;;;;;;5122809;27;20130;-76
2022/01/01 06:38:54;;;;;;;1999.90;874.92;;;13.10;99.90;;;;;;5128839;27;20039;-76
2022/01/01 06:41:20;;;;;;;1999.90;811.80;;;13.50;99.90;;;;;;5116637;27;20510;-77
2022/01/01 06:43:46;;;;;;;1999.90;987.58;;;13.50;99.90;;;;;;5126763;27;20047;-77
2022/01/01 06:46:12;;;;;;;1999.90;967.33;;;13.20;99.90;;;;;;5127829;27;20336;-78
2022/01/01 06:48:37;;;;;;;1999.90;975.55;;;13.20;99.90;;;;;;5124524;27;20077;-78
2022/01/01 06:51:03;;;;;;;1999.90;999.90;;;13.60;99.90;;;;;;5120670;27;20139;-82
2022/01/01 06:53:29;;;;;;;1999.90;970.25;;;13.30;99.90;;;;;;5121223;27;20055;-83
2022/01/01 06:55:54;;;;;;;1999.90;999.90;;;13.20;99.90;;;;;;5122375;27;20720;-78
2022/01/01 06:58:20;;;;;;;1999.90;999.90;;;13.40;99.90;;;;;;5125154;27;20043;-78
2022/01/01 07:00:46;;;;;;;1910.38;774.40;;;13.20;99.90;;;;;;5119240;28;20039;-77
2022/01/01 07:03:12;;;;;;;1999.90;958.67;;;13.60;99.90;;;;;;5121669;28;20039;-78
2022/01/01 07:05:37;;;;;;;1999.90;888.65;;;13.20;99.90;;;;;;5120978;28;20112;-78
2022/01/01 07:08:03;;;;;;;1999.90;899.08;;;13.40;99.90;;;;;;5121131;28;20359;-76
2022/01/01 07:10:29;;;;;;;1999.90;769.08;;;13.40;99.90;;;;;;5127701;28;20084;-77
2022/01/01 07:12:55;;;;;;;1999.90;999.90;;;13.40;99.90;;;;;;5130236;28;20115;-78
2022/01/01 07:15:20;;;;;;;1999.90;971.70;;;13.10;99.90;;;;;;5133538;27;20039;-77
2022/01/01 07:17:46;;;;;;;1999.90;995.67;;;13.00;99.90;;;;;;5134597;27;20051;-77
2022/01/01 07:20:12;;;;;;;1999.90;999.90;;;13.20;99.90;;;;;;5135860;27;20072;-78
2022/01/01 07:22:43;;;;;;;1999.90;894.30;;;13.50;99.90;;;;;;5134270;27;20447;-77
2022/01/01 07:25:10;;;;;;;1999.90;999.90;;;14.80;99.90;;;;;;5129520;27;20108;-77
2022/01/01 07:27:37;;;;;;;1999.90;726.70;;;13.00;99.90;;;;;;5124830;27;20441;-84
2022/01/01 07:30:04;;;;;;;1999.90;785.17;;;13.40;99.90;;;;;;5105132;27;20047;-79
2022/01/01 07:32:31;;;;;;;1722.63;673.97;;;13.50;99.90;;;;;;5125125;27;20044;-79
2022/01/01 07:34:57;;;;;;;1999.90;999.90;;;13.40;99.90;;;;;;5122546;27;20057;-80
2022/01/01 07:37:22;;;;;;;1999.90;999.90;;;13.50;99.90;;;;;;5124001;27;20043;-79
2022/01/01 07:39:48;;;;;;;1888.57;644.25;;;13.10;99.90;;;;;;5125413;27;20095;-79
2022/01/01 07:42:14;;;;;;;1868.13;808.97;;;13.30;99.90;;;;;;5124100;27;20391;-81
2022/01/01 07:44:43;;;;;;;1999.90;635.60;;;13.10;99.90;;;;;;5129064;27;20122;-81
2022/01/01 07:47:08;;;;;;;1999.90;929.83;;;13.20;99.90;;;;;;5147967;27;20042;-81
2022/01/01 07:49:34;;;;;;;1999.90;945.88;;;13.60;99.90;;;;;;5131781;27;20039;-79
2022/01/01 07:52:00;;;;;;;1999.90;999.90;;;13.90;99.90;;;;;;5132492;27;20045;-79
2022/01/01 07:54:26;;;;;;;1999.90;812.92;;;13.50;99.90;;;;;;5114294;27;20118;-76
2022/01/01 07:56:52;;;;;;;1999.90;999.90;;;13.40;99.90;;;;;;5133888;27;20043;-80
2022/01/01 07:59:17;;;;;;;1999.90;853.55;;;13.30;99.90;;;;;;5131679;27;20042;-80
2022/01/01 08:01:43;;;;;;;1999.90;999.90;;;13.20;99.90;;;;;;5113320;27;20058;-79
2022/01/01 08:04:09;;;;;;;1999.90;876.65;;;13.30;99.90;;;;;;5129830;27;20091;-80
2022/01/01 08:06:35;;;;;;;1999.90;778.70;;;13.60;99.90;;;;;;5130791;27;20657;-81
2022/01/01 08:09:01;;;;;;;1999.90;842.30;;;13.60;99.90;;;;;;5149880;27;20047;-80
2022/01/01 08:11:27;;;;;;;1999.90;975.08;;;13.70;99.90;;;;;;5134940;27;20051;-80
2022/01/01 08:13:53;;;;;;;1999.90;953.15;;;13.70;99.90;;;;;;5133150;27;20373;-79
2022/01/01 08:16:19;;;;;;;1999.90;999.90;;;13.30;99.90;;;;;;5116133;27;20564;-80
2022/01/01 08:18:45;;;;;;;1999.90;914.03;;;13.60;99.90;;;;;;5127201;27;20471;-80
2022/01/01 08:21:10;;;;;;;1999.90;999.90;;;14.90;99.90;;;;;;5115799;27;20047;-80
2022/01/01 08:23:36;;;;;;;1999.90;999.90;;;13.70;99.90;;;;;;5127099;27;20070;-80
2022/01/01 08:26:02;;;;;;;1999.90;992.22;;;13.70;99.90;;;;;;5133485;27;20100;-80
2022/01/01 08:28:28;;;;;;;1999.90;999.90;;;13.70;99.90;;;;;;5133690;27;20107;-80
2022/01/01 08:30:54;;;;;;;1999.90;573.65;;;13.70;99.90;;;;;;5132174;27;20035;-83
2022/01/01 08:33:21;;;;;;;1999.90;999.90;;;13.50;99.90;;;;;;5131071;27;20407;-82
2022/01/01 08:35:47;;;;;;;1999.90;999.90;;;13.60;99.90;;;;;;5130971;27;20359;-81
2022/01/01 08:38:16;;;;;;;1999.90;999.90;;;13.50;99.90;;;;;;5131051;27;20588;-82
2022/01/01 08:40:42;;;;;;;1999.90;819.13;;;13.60;99.90;;;;;;5145017;27;20059;-80
2022/01/01 08:43:08;;;;;;;1999.90;999.90;;;13.70;99.90;;;;;;5109098;27;21851;-81
2022/01/01 08:45:37;;;;;;;1990.65;477.15;;;13.50;99.90;;;;;;5132643;27;20039;-82
2022/01/01 08:48:03;;;;;;;1999.90;999.90;;;13.90;99.90;;;;;;5131948;27;20043;-80
2022/01/01 08:50:29;;;;;;;1999.90;999.90;;;14.00;99.90;;;;;;5134289;27;20201;-80
2022/01/01 08:52:55;;;;;;;1999.90;741.95;;;13.60;99.90;;;;;;5131049;27;20561;-80
2022/01/01 08:55:21;;;;;;;1999.90;999.90;;;15.20;99.90;;;;;;5113549;27;20047;-81
2022/01/01 08:57:46;;;;;;;1999.90;942.00;;;13.80;99.90;;;;;;5132542;27;20129;-80
2022/01/01 09:00:12;;;;;;;1999.90;999.90;;;13.90;99.90;;;;;;5133941;27;20043;-81
2022/01/01 09:02:39;;;;;;;1999.90;999.90;;;13.90;99.90;;;;;;5133204;27;20103;-80
2022/01/01 09:05:05;;;;;;;1999.90;999.90;;;14.10;99.90;;;;;;5131876;27;20115;-80
2022/01/01 09:07:31;;;;;;;1999.90;999.90;;;14.00;99.90;;;;;;5111324;27;20100;-82
2022/01/01 09:10:02;;;;;;;1999.90;999.90;;;14.00;99.90;;;;;;5132636;27;20039;-83
2022/01/01 09:12:28;;;;;;;1999.90;999.90;;;14.10;99.90;;;;;;5133023;27;20043;-81
2022/01/01 09:14:55;;;;;;;1878.80;606.35;;;13.70;99.90;;;;;;5112537;27;20072;-82
2022/01/01 09:17:21;;;;;;;1999.90;999.90;;;14.10;99.90;;;;;;5127862;27;20043;-82
2022/01/01 09:19:48;;;;;;;1999.90;860.72;;;14.10;99.90;;;;;;5129429;27;20114;-82
2022/01/01 09:22:13;;;;;;;1999.90;999.90;;;13.80;99.90;;;;;;5106997;28;20104;-80
2022/01/01 09:24:39;;;;;;;1999.90;452.00;;;14.10;99.90;;;;;;5111462;28;20097;-81
2022/01/01 09:27:05;;;;;;;1999.90;999.90;;;14.30;99.90;;;;;;5110760;28;20039;-81
2022/01/01 09:29:31;;;;;;;1999.90;999.90;;;14.30;99.90;;;;;;5110260;28;20464;-81
2022/01/01 09:31:57;;;;;;;1999.90;999.90;;;14.30;99.90;;;;;;5110328;28;20061;-82
2022/01/01 09:34:23;;;;;;;1999.90;999.90;;;14.00;99.90;;;;;;5092913;28;20040;-83
2022/01/01 09:36:50;;;;;;;1999.90;999.90;;;14.00;99.90;;;;;;5125125;27;20048;-85
2022/01/01 09:39:16;;;;;;;1999.90;878.10;;;14.00;99.90;;;;;;5093933;28;20047;-82
2022/01/01 09:41:43;;;;;;;1999.90;874.40;;;14.30;99.90;;;;;;5112859;28;20079;-83
2022/01/01 09:44:17;;;;;;;1936.55;817.78;;;14.30;99.90;;;;;;5110027;28;20082;-82
2022/01/01 09:46:45;;;;;;;1999.90;931.17;;;14.10;99.90;;;;;;5091831;28;20059;-82
2022/01/01 09:49:15;;;;;;;1999.90;999.90;;;14.20;99.90;;;;;;5107787;28;20048;-82
2022/01/01 09:51:42;;;;;;;1999.90;999.90;;;14.10;99.90;;;;;;5111286;28;20614;-81
2022/01/01 09:54:09;;;;;;;1999.90;999.90;;;14.30;99.90;;;;;;5111073;28;20051;-81
2022/01/01 09:56:35;;;;;;;1999.90;999.90;;;14.30;99.90;;;;;;5112744;28;20098;-81
2022/01/01 09:59:01;;;;;;;1999.90;999.90;;;14.20;99.90;;;;;;5112088;28;20044;-82
2022/01/01 10:01:26;;;;;;;1999.90;999.90;;;14.30;99.90;;;;;;5112037;28;20373;-81
2022/01/01 10:03:53;;;;;;;1999.90;999.90;;;14.30;99.90;;;;;;5109954;28;20386;-82
2022/01/01 10:06:21;;;;;;;1999.90;987.42;;;14.20;99.90;;;;;;5093624;28;20040;-81
2022/01/01 10:08:56;;;;;;;;;;;14.30;99.90;;;;;;5092445;28;20087;-82
2022/01/01 10:11:22;;;;;;;1999.90;999.90;;;14.30;99.90;;;;;;5091346;28;19967;-82
2022/01/01 10:13:48;;;;;;;1999.90;999.90;;;14.30;99.90;;;;;;5134966;27;20368;-83
2022/01/01 10:16:16;;;;;;;1999.90;906.97;;;14.30;99.90;;;;;;5122198;27;20047;-83
2022/01/01 10:18:43;;;;;;;;;;;14.10;99.90;;;;;;5073810;28;20484;-83
2022/01/01 10:21:17;;;;;;;1999.90;999.90;;;14.00;99.90;;;;;;5090325;28;19920;-82
2022/01/01 10:23:46;;;;;;;1999.90;999.90;;;14.30;99.90;;;;;;5118097;27;20047;-85
2022/01/01 10:29:20;;;;;;;1999.90;999.90;;;14.00;99.90;;;;;;5127628;27;20082;-83
2022/01/01 10:31:58;;;;;;;1999.90;999.90;;;14.00;99.90;;;;;;5093855;28;20075;-84
2022/01/01 10:34:29;;;;;;;1999.90;999.90;;;14.00;99.90;;;;;;5129789;27;20395;-85
2022/01/01 10:36:55;;;;;;;1999.90;999.90;;;14.00;99.90;;;;;;5130231;27;20039;-84
2022/01/01 10:39:22;;;;;;;1999.90;999.90;;;14.00;99.90;;;;;;5132225;27;20043;-85
2022/01/01 10:41:49;;;;;;;1999.90;999.90;;;14.10;99.90;;;;;;5131857;27;20090;-84
2022/01/01 10:44:15;;;;;;;1999.90;999.90;;;14.00;99.90;;;;;;5131264;27;20333;-84
2022/01/01 10:46:41;;;;;;;1999.90;911.53;;;14.00;99.90;;;;;;5131806;27;20043;-85
2022/01/01 10:52:28;;;;;;;1999.90;999.90;;;14.00;99.90;;;;;;5136740;27;20514;-83
2022/01/01 10:54:58;;;;;;;1999.90;999.90;;;12.40;99.90;;;;;;5143626;27;20051;-83
2022/01/01 10:57:27;;;;;;;1999.90;999.90;;;14.20;99.90;;;;;;5113567;28;20043;-83
2022/01/01 11:00:07;;;;;;;1999.90;999.90;;;14.10;99.90;;;;;;5131778;27;20475;-84
2022/01/01 11:02:34;;;;;;;1999.90;999.90;;;14.20;99.90;;;;;;5131143;28;20193;-83
2022/01/01 11:05:00;;;;;;;1999.90;999.90;;;14.10;99.90;;;;;;5117791;28;20437;-84
2022/01/01 11:07:29;;;;;;;1999.90;812.72;;;14.30;99.90;;;;;;5131047;28;20409;-83
2022/01/01 11:09:56;;;;;;;1999.90;999.90;;;14.30;99.90;;;;;;5131856;28;20081;-84
2022/01/01 11:12:27;;;;;;;1999.90;999.90;;;14.30;99.90;;;;;;5131089;28;20468;-83
2022/01/01 11:14:54;;;;;;;1999.90;999.90;;;14.30;99.90;;;;;;5109904;28;20049;-84
2022/01/01 11:17:21;;;;;;;1999.90;999.90;;;14.30;99.90;;;;;;5131197;28;20047;-84
2022/01/01 11:19:48;;;;;;;1999.90;999.90;;;14.30;99.90;;;;;;5131085;28;20039;-83
2022/01/01 11:22:14;;;;;;;1999.90;999.90;;;14.30;99.90;;;;;;5129247;28;20408;-85
2022/01/01 11:24:41;;;;;;;1999.90;999.90;;;14.30;99.90;;;;;;5131586;27;20503;-84
2022/01/01 11:27:07;;;;;;;1999.90;999.90;;;14.20;99.90;;;;;;5131078;28;20511;-85
2022/01/01 11:29:34;;;;;;;1999.90;999.90;;;14.30;99.90;;;;;;5131368;28;20046;-85
2022/01/01 11:32:03;;;;;;;1999.90;999.90;;;16.00;99.90;;;;;;5130458;27;20047;-85
2022/01/01 11:34:31;;;;;;;1999.90;999.90;;;14.30;99.90;;;;;;5131532;28;20280;-84
2022/01/01 11:36:57;;;;;;;;;;;14.40;99.90;;;;;;5130933;28;20053;-83
2022/01/01 11:39:26;;;;;;;1999.90;999.90;;;14.30;99.90;;;;;;5112847;28;19926;-83
2022/01/01 11:42:08;;;;;;;1999.90;999.90;;;14.30;99.90;;;;;;5102211;28;20054;-86
2022/01/01 11:44:35;;;;;;;1999.90;999.90;;;14.30;99.90;;;;;;5111569;28;20117;-82
2022/01/01 11:47:06;;;;;;;1999.90;999.90;;;14.30;99.90;;;;;;5146009;27;20042;-84
2022/01/01 11:49:33;;;;;;;1999.90;999.90;;;14.30;99.90;;;;;;5131466;28;20321;-83
2022/01/01 11:52:00;;;;;;;1999.90;982.75;;;14.70;99.90;;;;;;5130514;27;20078;-84
2022/01/01 11:54:31;;;;;;;1999.90;999.90;;;14.30;99.90;;;;;;5130390;27;20537;-85
2022/01/01 11:57:06;;;;;;;1999.90;999.90;;;14.30;99.90;;;;;;5111790;28;20395;-84
2022/01/01 11:59:39;;;;;;;1999.90;999.90;;;14.30;99.90;;;;;;5129900;27;20398;-84
2022/01/01 12:02:20;;;;;;;1999.90;953.83;;;14.30;99.90;;;;;;5115267;27;20039;-84
2022/01/01 12:04:51;;;;;;;1999.90;999.90;;;14.40;99.90;;;;;;5131646;27;20068;-84
2022/01/01 12:07:20;;;;;;;1999.90;999.90;;;14.30;99.90;;;;;;5132113;27;20036;-83
2022/01/01 12:09:55;;;;;;;1999.90;958.53;;;14.40;99.90;;;;;;5116529;27;20055;-83